Time;durP1;ratioP1;P1;durP2;ratioP2;P2;SDS_P1;SDS_P2;PMS_P1;PMS_P2;Temp;Humidity;BMP_temperature;BMP_pressure;BME280_temperature;BME280_humidity;BME280_pressure;Samples;Min_cycle;Max_cycle;Signal;HPM_P1;HPM_P2
2024/02/23 00:00:52;;;;;;;1.20;0.90;;;;;;;8.76;66.56;94778.90;108853;1267;25416;-74
2024/02/23 00:03:49;;;;;;;1.20;0.70;;;;;;;8.79;66.55;94800.62;108960;1271;23758;-74
2024/02/23 00:06:27;;;;;;;1.00;0.70;;;;;;;8.78;66.58;94793.56;108966;1264;22530;-74
2024/02/23 00:09:01;;;;;;;1.20;0.90;;;;;;;8.76;66.89;94785.52;108941;1272;26552;-74
2024/02/23 00:11:33;;;;;;;1.20;0.80;;;;;;;8.74;67.08;94786.42;108760;1272;22527;-74
2024/02/23 00:14:08;;;;;;;0.80;0.70;;;;;;;8.75;67.18;94800.34;108728;1271;22550;-75
2024/02/23 00:16:45;;;;;;;1.00;0.80;;;;;;;8.72;67.40;94801.52;108666;1272;152919;-75
2024/02/23 00:19:25;;;;;;;0.90;0.80;;;;;;;8.71;67.54;94793.98;108751;1272;24189;-74
2024/02/23 00:22:01;;;;;;;2.30;0.80;;;;;;;8.71;67.87;94805.20;108808;1267;22536;-74
2024/02/23 00:24:36;;;;;;;2.50;1.10;;;;;;;8.67;68.29;94797.28;108819;1271;22523;-75
2024/02/23 00:27:08;;;;;;;1.30;0.80;;;;;;;8.63;68.48;94811.61;108757;1271;24246;-75
2024/02/23 00:29:45;;;;;;;2.50;1.10;;;;;;;8.61;68.61;94783.30;108774;1257;22544;-75
2024/02/23 00:32:21;;;;;;;1.30;0.80;;;;;;;8.65;68.61;94809.50;108941;1272;25319;-75
2024/02/23 00:34:53;;;;;;;2.20;0.80;;;;;;;8.61;68.87;94807.98;109012;1271;22521;-75
2024/02/23 00:37:24;;;;;;;2.90;0.80;;;;;;;8.59;69.09;94822.46;108967;1271;22565;-75
2024/02/23 00:40:01;;;;;;;1.60;1.20;;;;;;;8.57;69.17;94810.73;108939;1271;22525;-75
2024/02/23 00:42:35;;;;;;;1.90;1.00;;;;;;;8.50;69.82;94812.13;108875;1249;22555;-74
2024/02/23 00:45:11;;;;;;;1.10;0.80;;;;;;;8.45;70.16;94810.88;108811;1271;23747;-75
2024/02/23 00:47:44;;;;;;;2.10;0.80;;;;;;;8.44;70.24;94813.98;108863;1271;24122;-75
2024/02/23 00:50:15;;;;;;;1.50;0.80;;;;;;;8.36;70.90;94817.52;108833;1268;22525;-75
2024/02/23 00:52:47;;;;;;;1.70;1.00;;;;;;;8.31;71.12;94815.10;108835;1270;24928;-75
2024/02/23 00:55:22;;;;;;;1.90;1.00;;;;;;;8.23;71.82;94815.92;108804;1267;22522;-75
2024/02/23 00:58:03;;;;;;;1.80;1.00;;;;;;;8.15;72.18;94815.39;108848;1272;25413;-75
2024/02/23 01:00:37;;;;;;;1.70;1.00;;;;;;;8.05;72.29;94824.01;108901;1267;22968;-75
2024/02/23 01:03:11;;;;;;;2.80;1.50;;;;;;;7.98;72.80;94815.58;108868;1271;22514;-75
2024/02/23 01:05:47;;;;;;;1.50;1.20;;;;;;;7.93;73.39;94812.71;108816;1271;25274;-75
2024/02/23 01:08:19;;;;;;;2.30;1.20;;;;;;;7.87;74.06;94816.67;108826;1271;22552;-75
2024/02/23 01:10:55;;;;;;;1.70;1.10;;;;;;;7.81;74.30;94809.80;108766;1272;25246;-75
2024/02/23 01:13:27;;;;;;;1.70;1.10;;;;;;;7.77;74.62;94814.41;108807;1272;24212;-75
2024/02/23 01:15:59;;;;;;;7.80;1.60;;;;;;;7.72;75.17;94812.52;108884;1267;24168;-75
2024/02/23 01:18:35;;;;;;;2.20;1.50;;;;;;;7.70;75.15;94811.61;108898;1270;22513;-75
2024/02/23 01:21:11;;;;;;;1.40;1.10;;;;;;;7.69;75.37;94811.12;108791;1271;25239;-75
2024/02/23 01:23:43;;;;;;;2.20;1.60;;;;;;;7.65;75.69;94816.73;108879;1271;22920;-75
2024/02/23 01:26:14;;;;;;;1.90;0.90;;;;;;;7.63;76.02;94814.23;108809;1271;22565;-75
2024/02/23 01:28:47;;;;;;;1.30;1.00;;;;;;;7.61;76.33;94813.77;108819;1272;24204;-75
2024/02/23 01:31:21;;;;;;;3.00;1.50;;;;;;;7.59;76.43;94822.88;108882;1271;22516;-75
2024/02/23 01:33:55;;;;;;;2.00;1.40;;;;;;;7.57;76.63;94812.73;108848;1271;22714;-75
2024/02/23 01:36:30;;;;;;;2.00;1.40;;;;;;;7.57;77.14;94817.75;108903;1271;22539;-75
2024/02/23 01:39:01;;;;;;;3.40;1.70;;;;;;;7.57;77.07;94810.96;108844;1269;22545;-74
2024/02/23 01:41:35;;;;;;;1.20;1.00;;;;;;;7.59;77.27;94809.85;108830;1271;22521;-75
2024/02/23 01:44:09;;;;;;;2.20;1.30;;;;;;;7.63;77.10;94807.65;108809;1268;23850;-75
2024/02/23 01:46:45;;;;;;;2.00;1.30;;;;;;;7.61;77.22;94809.88;108871;1271;22521;-75
2024/02/23 01:49:19;;;;;;;1.50;1.20;;;;;;;7.58;77.37;94802.27;108890;1271;23241;-75
2024/02/23 01:51:57;;;;;;;1.50;1.20;;;;;;;7.59;77.55;94803.14;108866;1271;25272;-75
2024/02/23 01:54:33;;;;;;;1.50;1.20;;;;;;;7.59;77.68;94797.35;108775;1271;22529;-75
2024/02/23 01:57:04;;;;;;;2.30;1.30;;;;;;;7.55;78.04;94807.88;108716;1271;22665;-75
2024/02/23 01:59:40;;;;;;;1.40;1.10;;;;;;;7.52;78.21;94795.98;108790;1271;25059;-75
2024/02/23 02:02:12;;;;;;;1.80;1.10;;;;;;;7.46;78.50;94790.93;108835;1268;23436;-75
2024/02/23 02:04:46;;;;;;;1.90;1.40;;;;;;;7.46;78.99;94792.15;108817;1271;25264;-75
2024/02/23 02:07:18;;;;;;;2.90;1.10;;;;;;;7.45;79.24;94796.85;108846;1271;22624;-75
2024/02/23 02:09:52;;;;;;;2.30;1.40;;;;;;;7.43;79.20;94795.53;108804;1271;22520;-74
2024/02/23 02:12:33;;;;;;;1.70;1.10;;;;;;;7.43;79.85;94794.80;108831;1271;22531;-74
2024/02/23 02:15:09;;;;;;;1.50;1.20;;;;;;;7.41;80.06;94791.95;108895;1271;22555;-75
2024/02/23 02:17:45;;;;;;;2.50;1.00;;;;;;;7.36;79.94;94789.39;108855;1269;24096;-75
2024/02/23 02:20:19;;;;;;;2.90;1.20;;;;;;;7.31;80.09;94797.80;108845;1271;24170;-75
2024/02/23 02:22:50;;;;;;;1.70;1.10;;;;;;;7.33;80.42;94788.02;108813;1271;25406;-75
2024/02/23 02:25:22;;;;;;;2.30;1.20;;;;;;;7.32;80.58;94788.44;108878;1271;22529;-75
2024/02/23 02:27:56;;;;;;;1.60;1.30;;;;;;;7.30;80.22;94788.63;108860;1269;23768;-75
2024/02/23 02:30:33;;;;;;;2.50;1.30;;;;;;;7.31;80.24;94781.97;108860;1271;22549;-75
2024/02/23 02:33:08;;;;;;;2.40;1.10;;;;;;;7.31;80.46;94778.23;108893;1271;22586;-75
2024/02/23 02:35:42;;;;;;;2.10;1.30;;;;;;;7.34;80.38;94792.67;108877;1261;22551;-75
2024/02/23 02:38:21;;;;;;;2.50;1.50;;;;;;;7.35;80.28;94792.16;108851;1272;27273;-74
2024/02/23 02:40:53;;;;;;;2.60;1.60;;;;;;;7.37;80.24;94791.41;108883;1267;23005;-75
2024/02/23 02:43:29;;;;;;;2.30;1.20;;;;;;;7.40;80.16;94792.20;108876;1271;22640;-75
2024/02/23 02:46:09;;;;;;;2.40;1.60;;;;;;;7.39;79.80;94797.69;108756;1267;23822;-75
2024/02/23 02:48:42;;;;;;;3.20;1.50;;;;;;;7.43;79.81;94797.42;108741;1264;22606;-75
2024/02/23 02:51:20;;;;;;;3.50;1.80;;;;;;;7.49;79.54;94801.01;108978;1270;22564;-75
2024/02/23 02:53:52;;;;;;;4.70;2.20;;;;;;;7.51;79.27;94802.31;108871;1264;25357;-75
2024/02/23 02:56:24;;;;;;;1.70;1.20;;;;;;;7.51;79.08;94802.63;108875;1267;22542;-75
2024/02/23 02:59:00;;;;;;;2.60;1.80;;;;;;;7.51;78.93;94802.40;108787;1267;23069;-75
2024/02/23 03:01:35;;;;;;;2.10;1.30;;;;;;;7.51;78.72;94803.61;108812;1272;24282;-74
2024/02/23 03:04:09;;;;;;;1.80;1.20;;;;;;;7.52;78.50;94787.21;108908;1267;23398;-74
2024/02/23 03:06:45;;;;;;;4.10;1.70;;;;;;;7.54;78.40;94796.52;108756;1268;22622;-74
2024/02/23 03:09:18;;;;;;;3.00;1.50;;;;;;;7.54;78.38;94796.12;108807;1272;22533;-74
2024/02/23 03:11:50;;;;;;;2.90;1.80;;;;;;;7.52;78.18;94799.86;108881;1272;22543;-74
2024/02/23 03:14:24;;;;;;;1.80;1.40;;;;;;;7.52;78.12;94807.65;108846;1269;22530;-74
2024/02/23 03:17:01;;;;;;;3.30;2.20;;;;;;;7.53;77.93;94797.98;108938;1272;22523;-75
2024/02/23 03:19:33;;;;;;;2.60;1.90;;;;;;;7.55;77.87;94795.73;108842;1271;22516;-75
2024/02/23 03:22:06;;;;;;;2.10;1.60;;;;;;;7.57;77.65;94792.06;108904;1266;26550;-75
2024/02/23 03:24:42;;;;;;;2.50;1.70;;;;;;;7.57;77.41;94800.88;108850;1271;25284;-75
2024/02/23 03:27:15;;;;;;;2.90;2.00;;;;;;;7.58;77.41;94797.44;108873;1265;22539;-75
2024/02/23 03:29:51;;;;;;;1.60;1.20;;;;;;;7.58;77.32;94797.25;108812;1272;24466;-75
2024/02/23 03:32:27;;;;;;;3.70;1.70;;;;;;;7.58;77.28;94796.42;108839;1271;24444;-75
2024/02/23 03:35:05;;;;;;;3.80;1.50;;;;;;;7.58;77.11;94799.95;108890;1272;23012;-75
2024/02/23 03:37:39;;;;;;;2.70;1.70;;;;;;;7.58;77.03;94806.90;108843;1271;22530;-75
2024/02/23 03:40:18;;;;;;;3.70;2.30;;;;;;;7.58;76.92;94809.35;108831;1271;22723;-74
2024/02/23 03:42:52;;;;;;;3.20;2.10;;;;;;;7.54;76.88;94809.34;108864;1270;26475;-75
2024/02/23 03:45:25;;;;;;;2.60;1.50;;;;;;;7.53;76.86;94811.60;108897;1271;22663;-75
2024/02/23 03:47:59;;;;;;;3.10;1.90;;;;;;;7.52;77.03;94809.20;108882;1266;22526;-75
2024/02/23 03:50:36;;;;;;;2.90;2.10;;;;;;;7.51;77.01;94812.02;108883;1271;22535;-73
2024/02/23 03:53:08;;;;;;;2.60;1.60;;;;;;;7.50;77.26;94813.36;108843;1271;23908;-75
2024/02/23 03:55:45;;;;;;;2.40;1.80;;;;;;;7.49;77.31;94816.92;108925;1266;22773;-75
2024/02/23 03:58:19;;;;;;;2.00;1.50;;;;;;;7.50;77.21;94814.84;108866;1265;24131;-75
2024/02/23 04:00:53;;;;;;;3.60;2.10;;;;;;;7.50;77.31;94820.30;108752;1271;22516;-75
2024/02/23 04:03:29;;;;;;;3.60;2.30;;;;;;;7.51;77.21;94816.48;108871;1271;23970;-75
2024/02/23 04:06:03;;;;;;;3.80;2.00;;;;;;;7.51;77.19;94813.70;108829;1271;22518;-74
2024/02/23 04:08:36;;;;;;;2.70;1.70;;;;;;;7.53;77.24;94815.11;108842;1271;22524;-74
2024/02/23 04:11:13;;;;;;;2.30;1.80;;;;;;;7.57;77.09;94816.05;108876;1271;22572;-74
2024/02/23 04:13:52;;;;;;;2.60;2.00;;;;;;;7.60;76.94;94819.64;108872;1271;22531;-74
2024/02/23 04:16:29;;;;;;;2.00;1.60;;;;;;;7.62;76.92;94809.89;108847;1271;25245;-74
2024/02/23 04:19:06;;;;;;;3.90;1.80;;;;;;;7.65;76.67;94812.65;108862;1269;22525;-74
2024/02/23 04:21:40;;;;;;;2.30;1.60;;;;;;;7.65;76.61;94810.58;108856;1271;24253;-75
2024/02/23 04:24:14;;;;;;;2.30;1.90;;;;;;;7.68;76.51;94822.27;108904;1262;22531;-74
2024/02/23 04:26:45;;;;;;;3.10;1.90;;;;;;;7.70;76.51;94823.84;108874;1266;22546;-75
2024/02/23 04:29:17;;;;;;;2.20;1.60;;;;;;;7.72;76.31;94829.59;108848;1271;23855;-75
2024/02/23 04:31:51;;;;;;;4.20;2.00;;;;;;;7.75;76.18;94831.39;108851;1271;22539;-74
2024/02/23 04:34:22;;;;;;;3.90;1.40;;;;;;;7.79;75.87;94835.89;108886;1271;22522;-75
2024/02/23 04:36:57;;;;;;;2.00;1.40;;;;;;;7.79;75.76;94842.36;108871;1271;22541;-75
2024/02/23 04:39:28;;;;;;;1.90;1.30;;;;;;;7.80;75.53;94849.69;108849;1271;24086;-74
2024/02/23 04:42:00;;;;;;;1.70;1.50;;;;;;;7.83;75.31;94845.01;108869;1267;22936;-75
2024/02/23 04:44:35;;;;;;;2.00;1.00;;;;;;;7.84;75.26;94848.83;108918;1268;25354;-75
2024/02/23 04:47:08;;;;;;;1.50;1.30;;;;;;;7.84;75.18;94852.46;108880;1271;22532;-75
2024/02/23 04:49:41;;;;;;;1.90;1.30;;;;;;;7.85;75.17;94849.63;108853;1271;22563;-74
2024/02/23 04:52:15;;;;;;;2.00;1.30;;;;;;;7.83;75.08;94845.10;108848;1269;22616;-75
2024/02/23 04:54:46;;;;;;;1.50;1.30;;;;;;;7.83;75.08;94848.02;108878;1271;22537;-75
2024/02/23 04:57:17;;;;;;;1.60;1.10;;;;;;;7.82;75.13;94849.84;108850;1271;22528;-75
2024/02/23 04:59:49;;;;;;;2.00;1.50;;;;;;;7.83;75.15;94847.49;108837;1271;22559;-75
2024/02/23 05:02:23;;;;;;;2.00;1.30;;;;;;;7.84;75.12;94848.77;108849;1271;22527;-75
2024/02/23 05:04:54;;;;;;;1.80;1.20;;;;;;;7.83;75.20;94849.16;108876;1271;22559;-75
2024/02/23 05:07:29;;;;;;;2.10;1.20;;;;;;;7.81;75.37;94847.11;108836;1271;22517;-74
2024/02/23 05:10:06;;;;;;;1.70;1.10;;;;;;;7.81;75.40;94854.87;108826;1271;25311;-75
2024/02/23 05:12:40;;;;;;;2.20;1.20;;;;;;;7.78;75.70;94858.42;108888;1271;22522;-75
2024/02/23 05:15:12;;;;;;;2.30;1.30;;;;;;;7.75;75.84;94858.97;108827;1271;22677;-75
2024/02/23 05:17:44;;;;;;;1.90;1.10;;;;;;;7.73;76.19;94857.52;108893;1271;24213;-75
2024/02/23 05:20:22;;;;;;;1.30;0.80;;;;;;;7.70;76.32;94859.46;108841;1271;23846;-75
2024/02/23 05:22:53;;;;;;;1.80;1.10;;;;;;;7.66;76.83;94867.05;108954;1265;22529;-75
2024/02/23 05:25:26;;;;;;;2.20;1.10;;;;;;;7.61;77.05;94864.08;108859;1266;22513;-75
2024/02/23 05:28:03;;;;;;;1.40;0.90;;;;;;;7.57;77.53;94871.77;108935;1271;22545;-75
2024/02/23 05:30:38;;;;;;;2.30;1.40;;;;;;;7.52;78.33;94874.41;108848;1265;22542;-74
2024/02/23 05:33:10;;;;;;;1.30;1.10;;;;;;;7.46;78.59;94872.77;108893;1271;26901;-74
2024/02/23 05:35:45;;;;;;;1.50;1.00;;;;;;;7.43;78.63;94872.51;108874;1271;22524;-74
2024/02/23 05:38:17;;;;;;;1.10;0.90;;;;;;;7.40;79.16;94875.35;108877;1268;22647;-74
2024/02/23 05:40:51;;;;;;;1.30;0.90;;;;;;;7.40;79.76;94881.77;108852;1266;25468;-74
2024/02/23 05:43:25;;;;;;;1.30;0.80;;;;;;;7.37;80.14;94883.68;108947;1264;23737;-74
2024/02/23 05:45:59;;;;;;;0.80;0.70;;;;;;;7.36;80.56;94894.09;108874;1271;22547;-74
2024/02/23 05:48:35;;;;;;;3.10;1.30;;;;;;;7.37;80.77;94896.08;108854;1271;22532;-75
2024/02/23 05:51:12;;;;;;;1.90;0.80;;;;;;;7.37;81.08;94895.92;108828;1271;23767;-75
2024/02/23 05:53:46;;;;;;;2.90;1.20;;;;;;;7.37;81.25;94901.88;108907;1271;22533;-75
2024/02/23 05:56:23;;;;;;;1.40;1.00;;;;;;;7.32;81.29;94903.58;108869;1271;25426;-74
2024/02/23 05:58:57;;;;;;;1.10;0.70;;;;;;;7.28;81.67;94903.66;108854;1270;25505;-75
2024/02/23 06:01:31;;;;;;;1.60;0.60;;;;;;;7.26;82.12;94913.42;108874;1271;23502;-74
2024/02/23 06:04:05;;;;;;;1.60;0.60;;;;;;;7.28;82.50;94916.85;108912;1265;25472;-75
2024/02/23 06:06:37;;;;;;;0.60;0.60;;;;;;;7.26;82.28;94916.62;108953;1271;22552;-74
2024/02/23 06:09:13;;;;;;;1.20;0.70;;;;;;;7.22;82.63;94924.94;108858;1271;24926;-74
2024/02/23 06:11:45;;;;;;;0.90;0.70;;;;;;;7.22;82.69;94935.23;108877;1271;22518;-75
2024/02/23 06:14:19;;;;;;;0.80;0.80;;;;;;;7.20;83.01;94935.12;108892;1265;23918;-74
2024/02/23 06:16:50;;;;;;;1.60;0.80;;;;;;;7.17;83.07;94943.23;108874;1271;22520;-74
2024/02/23 06:19:22;;;;;;;1.20;0.90;;;;;;;7.15;83.64;94941.89;108836;1271;23277;-74
2024/02/23 06:21:59;;;;;;;1.10;0.90;;;;;;;7.16;83.77;94939.13;108855;1265;22517;-74
2024/02/23 06:24:33;;;;;;;2.30;0.80;;;;;;;7.16;83.75;94955.84;108895;1265;22517;-75
2024/02/23 06:27:10;;;;;;;2.60;1.10;;;;;;;7.16;84.06;94960.21;108855;1271;22587;-75
2024/02/23 06:29:46;;;;;;;1.40;1.00;;;;;;;7.16;84.09;94956.36;108881;1271;22540;-75
2024/02/23 06:32:20;;;;;;;1.90;0.90;;;;;;;7.17;84.29;94951.23;108806;1264;24088;-75
2024/02/23 06:34:54;;;;;;;2.30;1.30;;;;;;;7.18;84.26;94962.87;108888;1266;24529;-75
2024/02/23 06:37:29;;;;;;;1.60;1.00;;;;;;;7.18;84.44;94972.88;108935;1265;25368;-75
2024/02/23 06:40:00;;;;;;;1.50;1.10;;;;;;;7.19;84.34;94974.30;108870;1265;22544;-75
2024/02/23 06:42:35;;;;;;;1.20;0.90;;;;;;;7.19;84.31;94971.51;108900;1264;22585;-75
2024/02/23 06:45:11;;;;;;;1.10;0.90;;;;;;;7.18;84.69;94981.79;108872;1271;22521;-74
2024/02/23 06:47:45;;;;;;;2.70;1.30;;;;;;;7.18;84.84;94975.98;108890;1251;22555;-75
2024/02/23 06:50:17;;;;;;;1.40;0.90;;;;;;;7.19;84.91;94971.60;108870;1271;24745;-75
2024/02/23 06:52:51;;;;;;;2.10;1.40;;;;;;;7.17;85.22;94973.90;108873;1268;22545;-74
2024/02/23 06:55:25;;;;;;;2.20;1.20;;;;;;;7.14;85.28;94975.70;108894;1271;25301;-74
2024/02/23 06:57:59;;;;;;;3.30;1.70;;;;;;;7.14;85.55;94982.18;108892;1271;22621;-74
2024/02/23 07:00:39;;;;;;;1.30;1.00;;;;;;;7.16;85.49;94983.46;108911;1271;22627;-75
2024/02/23 07:03:10;;;;;;;1.30;1.00;;;;;;;7.18;85.51;94986.54;108913;1271;22748;-75
2024/02/23 07:05:43;;;;;;;2.10;1.30;;;;;;;7.20;85.74;94985.14;108914;1268;23284;-75
2024/02/23 07:08:20;;;;;;;3.50;1.90;;;;;;;7.20;85.81;94985.71;108907;1271;22517;-75
2024/02/23 07:10:51;;;;;;;1.70;1.00;;;;;;;7.20;85.88;94988.23;108827;1271;25297;-75
2024/02/23 07:13:26;;;;;;;1.70;1.40;;;;;;;7.21;86.15;94988.95;108717;1265;22514;-75
2024/02/23 07:16:01;;;;;;;2.20;1.60;;;;;;;7.22;86.08;94989.20;108579;1268;22521;-74
2024/02/23 07:18:37;;;;;;;2.40;1.40;;;;;;;7.24;86.10;94992.38;108893;1266;22544;-75
2024/02/23 07:21:11;;;;;;;2.00;1.40;;;;;;;7.25;86.31;94995.15;108840;1271;22522;-74
2024/02/23 07:23:43;;;;;;;2.30;1.40;;;;;;;7.26;86.31;94996.37;108863;1259;24203;-74
2024/02/23 07:26:14;;;;;;;1.70;1.10;;;;;;;7.26;86.37;94993.95;108875;1265;24343;-75
2024/02/23 07:28:48;;;;;;;1.80;1.10;;;;;;;7.25;86.36;94999.67;108852;1264;22530;-74
2024/02/23 07:31:21;;;;;;;2.90;1.50;;;;;;;7.21;86.41;95005.73;108863;1268;23465;-74
2024/02/23 07:34:01;;;;;;;1.50;1.10;;;;;;;7.19;86.63;95002.83;108850;1264;22532;-74
2024/02/23 07:36:36;;;;;;;1.20;0.80;;;;;;;7.18;86.85;95005.73;108842;1265;23846;-75
2024/02/23 07:39:11;;;;;;;2.00;1.20;;;;;;;7.18;86.89;95011.63;108692;1266;22602;-75
2024/02/23 07:41:45;;;;;;;2.00;1.30;;;;;;;7.16;86.94;95014.40;110224;1265;22590;-75
2024/02/23 07:44:19;;;;;;;1.90;1.30;;;;;;;7.12;87.30;95019.76;108830;1265;24251;-74
2024/02/23 07:46:52;;;;;;;1.80;1.20;;;;;;;7.08;87.50;95025.11;108896;1268;22513;-74
2024/02/23 07:49:27;;;;;;;2.10;1.50;;;;;;;7.07;87.47;95029.02;108900;1271;22514;-75
2024/02/23 07:51:59;;;;;;;2.30;1.70;;;;;;;7.06;87.52;95028.69;108803;1271;24044;-74
2024/02/23 07:54:35;;;;;;;2.90;1.10;;;;;;;7.05;87.78;95031.66;108879;1264;22658;-74
2024/02/23 07:57:10;;;;;;;2.00;1.00;;;;;;;7.02;88.32;95035.11;108870;1271;22667;-74
2024/02/23 07:59:41;;;;;;;1.90;1.30;;;;;;;6.97;88.42;95040.34;108822;1266;22517;-74
2024/02/23 08:02:18;;;;;;;2.70;1.40;;;;;;;6.95;88.63;95048.29;108785;1271;22517;-74
2024/02/23 08:04:50;;;;;;;2.90;1.50;;;;;;;6.92;88.89;95055.05;108904;1271;25954;-74
2024/02/23 08:07:25;;;;;;;2.80;1.20;;;;;;;6.88;89.09;95059.05;108777;1260;22539;-74
2024/02/23 08:10:00;;;;;;;3.50;1.50;;;;;;;6.84;89.35;95065.08;108856;1263;22528;-75
2024/02/23 08:12:37;;;;;;;3.20;1.30;;;;;;;6.83;89.42;95065.47;108900;1271;25444;-75
2024/02/23 08:15:10;;;;;;;2.60;1.60;;;;;;;6.83;90.17;95063.89;108846;1265;24007;-74
2024/02/23 08:17:46;;;;;;;2.70;1.60;;;;;;;6.82;90.61;95067.23;108883;1265;22534;-75
2024/02/23 08:20:21;;;;;;;4.20;2.00;;;;;;;6.79;90.64;95078.25;108887;1265;25346;-75
2024/02/23 08:22:55;;;;;;;3.20;1.80;;;;;;;6.79;90.63;95076.15;108853;1271;22542;-75
2024/02/23 08:25:28;;;;;;;2.60;1.70;;;;;;;6.79;90.82;95082.66;108863;1265;22567;-75
2024/02/23 08:28:02;;;;;;;3.20;1.70;;;;;;;6.82;90.77;95084.83;108901;1265;22556;-74
2024/02/23 08:30:33;;;;;;;2.90;1.30;;;;;;;6.83;90.87;95089.17;108836;1265;23587;-75
2024/02/23 08:33:05;;;;;;;3.20;1.60;;;;;;;6.87;91.15;95095.20;108885;1268;22731;-75
2024/02/23 08:35:37;;;;;;;1.10;0.90;;;;;;;6.90;91.30;95095.58;108720;1267;22533;-75
2024/02/23 08:38:11;;;;;;;1.50;1.20;;;;;;;6.90;91.32;95098.16;108854;1265;23052;-76
2024/02/23 08:40:46;;;;;;;2.00;1.50;;;;;;;6.92;91.44;95104.45;108769;1265;22546;-74
2024/02/23 08:43:20;;;;;;;2.00;1.30;;;;;;;6.95;91.28;95105.14;108823;1264;22521;-75
2024/02/23 08:45:51;;;;;;;2.20;1.60;;;;;;;6.98;91.31;95098.02;108851;1271;22786;-74
2024/02/23 08:48:27;;;;;;;2.50;1.50;;;;;;;6.99;91.22;95101.21;108793;1271;23603;-74
2024/02/23 08:51:00;;;;;;;1.90;1.00;;;;;;;7.01;91.22;95100.05;108791;1265;22595;-74
2024/02/23 08:53:32;;;;;;;1.40;0.90;;;;;;;7.02;91.30;95102.69;108797;1265;22536;-74
2024/02/23 08:56:07;;;;;;;0.70;0.60;;;;;;;7.01;91.26;95113.55;108838;1265;24015;-75
2024/02/23 08:58:38;;;;;;;1.40;1.10;;;;;;;7.06;91.42;95108.52;108841;1265;22546;-75
2024/02/23 09:01:13;;;;;;;0.80;0.70;;;;;;;7.07;91.38;95106.02;108821;1271;25226;-75
2024/02/23 09:03:46;;;;;;;0.50;0.30;;;;;;;7.06;91.40;95112.78;108873;1271;24310;-75
2024/02/23 09:06:22;;;;;;;1.00;0.50;;;;;;;7.06;91.42;95119.02;108845;1249;25468;-74
2024/02/23 09:08:59;;;;;;;0.60;0.50;;;;;;;7.04;91.39;95120.38;108642;1270;22553;-75
2024/02/23 09:11:32;;;;;;;0.90;0.40;;;;;;;7.01;91.31;95121.94;108699;1271;22559;-75
2024/02/23 09:14:06;;;;;;;1.00;0.70;;;;;;;6.97;91.52;95126.60;108831;1270;22645;-74
2024/02/23 09:16:37;;;;;;;0.90;0.60;;;;;;;6.94;91.76;95127.06;108885;1271;24264;-74
2024/02/23 09:19:10;;;;;;;1.70;0.60;;;;;;;6.92;91.95;95134.08;108798;1265;22561;-74
2024/02/23 09:21:41;;;;;;;1.00;0.50;;;;;;;6.90;91.99;95137.90;108793;1265;25361;-74
2024/02/23 09:24:15;;;;;;;0.80;0.50;;;;;;;6.90;92.13;95142.21;108758;1271;22540;-74
2024/02/23 09:26:49;;;;;;;1.40;0.50;;;;;;;6.89;92.37;95137.42;108848;1271;24419;-74
2024/02/23 09:29:22;;;;;;;1.40;0.80;;;;;;;6.92;92.36;95134.77;108825;1264;22527;-74
2024/02/23 09:31:57;;;;;;;1.40;1.00;;;;;;;6.95;92.35;95142.70;108724;1267;23776;-74
2024/02/23 09:34:34;;;;;;;3.30;1.70;;;;;;;7.00;92.31;95150.66;108840;1271;22517;-74
2024/02/23 09:37:09;;;;;;;3.60;2.20;;;;;;;7.03;92.13;95154.40;108842;1271;22601;-74
2024/02/23 09:39:43;;;;;;;3.30;1.90;;;;;;;7.03;92.15;95157.20;108842;1271;25721;-74
2024/02/23 09:42:15;;;;;;;2.40;2.10;;;;;;;7.01;92.05;95163.72;108796;1265;22567;-74
2024/02/23 09:44:48;;;;;;;2.60;1.60;;;;;;;7.00;92.07;95166.22;108890;1265;22546;-74
2024/02/23 09:47:22;;;;;;;2.10;1.50;;;;;;;7.01;92.22;95169.67;108769;1265;22634;-74
2024/02/23 09:49:58;;;;;;;2.80;1.40;;;;;;;7.02;92.37;95177.34;108812;1270;26435;-73
2024/02/23 09:52:35;;;;;;;2.70;1.60;;;;;;;7.00;92.41;95178.65;108887;1271;22563;-74
2024/02/23 09:55:18;;;;;;;1.90;1.40;;;;;;;6.99;92.69;95179.10;108873;1271;22540;-74
2024/02/23 09:57:54;;;;;;;2.00;1.40;;;;;;;6.96;92.91;95182.04;108704;1265;23975;-74
2024/02/23 10:00:31;;;;;;;2.20;1.40;;;;;;;6.96;93.12;95183.05;108862;1265;22520;-75
2024/02/23 10:03:03;;;;;;;1.90;1.50;;;;;;;6.99;93.27;95189.27;108815;1265;23705;-74
2024/02/23 10:05:40;;;;;;;3.90;1.20;;;;;;;7.05;93.38;95190.59;108874;1265;25425;-74
2024/02/23 10:08:15;;;;;;;1.90;1.20;;;;;;;7.09;93.38;95190.77;108841;1265;24682;-74
2024/02/23 10:10:51;;;;;;;3.10;1.70;;;;;;;7.12;93.31;95189.04;108862;1264;23054;-74
2024/02/23 10:13:23;;;;;;;2.90;1.70;;;;;;;7.18;93.55;95186.73;108816;1271;22646;-74
2024/02/23 10:15:58;;;;;;;1.90;1.40;;;;;;;7.28;93.71;95192.98;108758;1268;22553;-74
2024/02/23 10:18:34;;;;;;;3.10;1.90;;;;;;;7.34;93.48;95192.88;109087;1264;22517;-74
2024/02/23 10:21:10;;;;;;;2.60;1.60;;;;;;;7.35;93.22;95185.80;108843;1271;24248;-74
2024/02/23 10:23:42;;;;;;;2.80;1.60;;;;;;;7.37;93.30;95186.23;108753;1264;22567;-74
2024/02/23 10:26:18;;;;;;;3.40;1.90;;;;;;;7.43;93.19;95186.68;108811;1268;22531;-74
2024/02/23 10:28:55;;;;;;;2.60;1.80;;;;;;;7.43;92.96;95179.45;108513;1265;24302;-75
2024/02/23 10:31:27;;;;;;;4.00;2.10;;;;;;;7.43;92.99;95187.73;108629;1271;23044;-74
2024/02/23 10:34:00;;;;;;;3.50;2.20;;;;;;;7.44;93.08;95193.98;108650;1268;22517;-74
2024/02/23 10:36:37;;;;;;;4.00;1.80;;;;;;;7.43;92.86;95187.30;108835;1271;22570;-74
2024/02/23 10:39:12;;;;;;;2.70;1.60;;;;;;;7.43;92.99;95188.61;108660;1271;22627;-75
2024/02/23 10:41:54;;;;;;;4.30;2.00;;;;;;;7.49;92.83;95186.27;108916;1265;22539;-74
2024/02/23 10:44:27;;;;;;;3.40;2.20;;;;;;;7.53;93.05;95183.77;108923;1265;22526;-74
2024/02/23 10:47:01;;;;;;;3.20;1.80;;;;;;;7.60;92.97;95185.83;108877;1265;24249;-74
2024/02/23 10:49:38;;;;;;;2.30;1.80;;;;;;;7.66;92.92;95185.19;108858;1264;22525;-74
2024/02/23 10:52:11;;;;;;;3.70;2.70;;;;;;;7.69;92.71;95184.12;108893;1265;23749;-74
2024/02/23 10:54:47;;;;;;;3.30;2.10;;;;;;;7.64;92.89;95189.14;108846;1268;25413;-74
2024/02/23 10:57:23;;;;;;;3.70;2.20;;;;;;;7.63;92.78;95185.20;108834;1271;23117;-74
2024/02/23 10:59:59;;;;;;;3.30;2.10;;;;;;;7.64;92.86;95189.55;108804;1271;22532;-74
2024/02/23 11:02:41;;;;;;;3.40;2.10;;;;;;;7.68;92.74;95184.52;108796;1271;22527;-74
2024/02/23 11:05:20;;;;;;;4.50;2.10;;;;;;;7.68;92.71;95188.52;108817;1271;22799;-74
2024/02/23 11:07:54;;;;;;;3.50;2.00;;;;;;;7.64;92.73;95187.44;108823;1271;22571;-75
2024/02/23 11:10:28;;;;;;;4.10;2.00;;;;;;;7.54;92.59;95199.88;108836;1271;22515;-74
2024/02/23 11:13:08;;;;;;;3.10;2.40;;;;;;;7.50;92.82;95201.39;108809;1271;25509;-74
2024/02/23 11:15:47;;;;;;;3.60;2.20;;;;;;;7.51;92.92;95195.94;108831;1265;22679;-75
2024/02/23 11:18:35;;;;;;;3.90;2.10;;;;;;;7.50;92.99;95198.64;108824;1265;22716;-74
2024/02/23 11:21:13;;;;;;;4.60;2.20;;;;;;;7.58;93.18;95206.60;108820;1265;23990;-74
2024/02/23 11:23:50;;;;;;;2.40;1.80;;;;;;;7.62;92.93;95206.96;108817;1271;22527;-74
2024/02/23 11:26:28;;;;;;;2.60;1.70;;;;;;;7.65;92.94;95211.16;108921;1271;22531;-75
2024/02/23 11:29:00;;;;;;;4.30;1.90;;;;;;;7.68;92.81;95203.92;108784;1268;22707;-75
2024/02/23 11:31:37;;;;;;;3.20;2.10;;;;;;;7.70;92.83;95207.51;108831;1271;22990;-74
2024/02/23 11:34:14;;;;;;;3.30;1.80;;;;;;;7.75;92.68;95211.14;108809;1265;22549;-75
2024/02/23 11:36:54;;;;;;;2.80;1.40;;;;;;;7.80;92.45;95209.36;108828;1271;23466;-75
2024/02/23 11:39:27;;;;;;;2.90;1.90;;;;;;;7.85;92.48;95215.91;108894;1270;22537;-75
2024/02/23 11:42:00;;;;;;;3.20;2.10;;;;;;;7.86;92.23;95214.16;108847;1271;23838;-75
2024/02/23 11:44:34;;;;;;;2.30;1.60;;;;;;;7.86;92.29;95213.63;108783;1265;22529;-75
2024/02/23 11:47:10;;;;;;;3.40;2.00;;;;;;;7.86;92.01;95213.90;108743;1265;22682;-75
2024/02/23 11:49:42;;;;;;;3.50;2.00;;;;;;;7.86;91.91;95215.02;108781;1271;22573;-75
2024/02/23 11:52:15;;;;;;;3.50;2.00;;;;;;;7.87;92.02;95214.89;108760;1272;25431;-75
2024/02/23 11:54:47;;;;;;;4.30;2.20;;;;;;;7.86;91.94;95218.50;108714;1265;26578;-74
2024/02/23 11:57:26;;;;;;;2.50;1.90;;;;;;;7.83;91.90;95216.67;109586;1266;22637;-75
2024/02/23 12:00:04;;;;;;;3.00;1.30;;;;;;;7.83;91.91;95219.34;108832;1268;22845;-74
2024/02/23 12:02:36;;;;;;;2.70;1.80;;;;;;;7.80;91.91;95222.75;108758;1269;22520;-74
2024/02/23 12:05:09;;;;;;;2.30;1.60;;;;;;;7.82;92.09;95221.28;108752;1271;25649;-74
2024/02/23 12:07:51;;;;;;;3.10;1.50;;;;;;;7.83;91.91;95223.10;108823;1271;22504;-75